Time;durP1;ratioP1;P1;durP2;ratioP2;P2;SDS_P1;SDS_P2;PMS_P1;PMS_P2;Temp;Humidity;BMP_temperature;BMP_pressure;BME280_temperature;BME280_humidity;BME280_pressure;Samples;Min_cycle;Max_cycle;Signal;HPM_P1;HPM_P2
2022/05/20 00:03:13;;;;;;;4.88;2.72;;;;;;;;;;8313595;28;20045;-59
2022/05/20 00:07:13;;;;;;;4.45;3.17;;;;;;;;;;8309270;28;20028;-60
2022/05/20 00:11:13;;;;;;;5.20;2.90;;;;;;;;;;8308246;28;20102;-59
2022/05/20 00:15:15;;;;;;;3.78;2.90;;;;;;;;;;8308185;28;20024;-60
2022/05/20 00:19:15;;;;;;;4.35;2.65;;;;;;;;;;8310297;28;20128;-60
2022/05/20 00:23:15;;;;;;;3.97;2.78;;;;;;;;;;8310211;28;20083;-59
2022/05/20 00:27:16;;;;;;;4.18;2.72;;;;;;;;;;8309486;28;20025;-60
2022/05/20 00:31:17;;;;;;;4.10;2.58;;;;;;;;;;8309627;28;20038;-59
2022/05/20 00:35:17;;;;;;;3.78;2.78;;;;;;;;;;8308333;28;20032;-59
2022/05/20 00:39:18;;;;;;;4.10;2.90;;;;;;;;;;8311282;28;20071;-58
2022/05/20 00:43:24;;;;;;;3.97;3.17;;;;;;;;;;8311874;28;20044;-58
2022/05/20 00:47:24;;;;;;;4.25;3.20;;;;;;;;;;8309592;28;20517;-59
2022/05/20 00:51:38;;;;;;;6.72;3.55;;;;;;;;;;8306253;28;20072;-58
2022/05/20 00:55:40;;;;;;;5.18;3.20;;;;;;;;;;8311046;28;20030;-59
2022/05/20 00:59:42;;;;;;;2.80;2.55;;;;;;;;;;8310417;28;20021;-58
2022/05/20 01:03:43;;;;;;;5.45;2.63;;;;;;;;;;8310361;28;20827;-59
2022/05/20 01:07:43;;;;;;;6.68;2.80;;;;;;;;;;8309162;28;20057;-59
2022/05/20 01:11:43;;;;;;;4.38;3.05;;;;;;;;;;8310935;28;20575;-59
2022/05/20 01:15:44;;;;;;;3.70;2.83;;;;;;;;;;8309401;28;20073;-59
2022/05/20 01:19:55;;;;;;;6.38;2.97;;;;;;;;;;8309904;28;20501;-60
2022/05/20 01:23:59;;;;;;;6.65;3.05;;;;;;;;;;8307176;28;20132;-58
2022/05/20 01:27:59;;;;;;;3.88;3.25;;;;;;;;;;8307569;28;20084;-59
2022/05/20 01:31:59;;;;;;;2.78;2.50;;;;;;;;;;8307558;28;20033;-58
2022/05/20 01:36:00;;;;;;;3.53;2.72;;;;;;;;;;8310115;28;20033;-59
2022/05/20 01:40:00;;;;;;;3.83;2.75;;;;;;;;;;8309828;28;20090;-59
2022/05/20 01:44:21;;;;;;;4.50;3.22;;;;;;;;;;8311129;28;20029;-59
2022/05/20 01:48:25;;;;;;;4.22;2.95;;;;;;;;;;8309233;28;20124;-59
2022/05/20 01:52:46;;;;;;;3.40;2.75;;;;;;;;;;8308788;28;20025;-58
2022/05/20 01:56:49;;;;;;;3.55;2.95;;;;;;;;;;8307197;28;20029;-59
2022/05/20 02:00:52;;;;;;;4.80;3.13;;;;;;;;;;8308102;28;20036;-58
2022/05/20 02:05:02;;;;;;;3.72;2.80;;;;;;;;;;8309082;28;20021;-59
2022/05/20 02:09:08;;;;;;;4.10;2.83;;;;;;;;;;8308022;28;20048;-58
2022/05/20 02:13:11;;;;;;;4.38;2.75;;;;;;;;;;8307411;28;20040;-58
2022/05/20 02:17:14;;;;;;;7.72;3.50;;;;;;;;;;8307146;28;20048;-58
2022/05/20 02:21:15;;;;;;;4.90;3.17;;;;;;;;;;8309437;28;20838;-59
2022/05/20 02:25:19;;;;;;;5.78;2.85;;;;;;;;;;8306935;28;20029;-58
2022/05/20 02:29:22;;;;;;;3.92;3.10;;;;;;;;;;8309364;28;20041;-58
2022/05/20 02:33:23;;;;;;;4.27;2.57;;;;;;;;;;8307319;28;20071;-58
2022/05/20 02:37:25;;;;;;;6.28;2.70;;;;;;;;;;8308682;28;20031;-59
2022/05/20 02:41:26;;;;;;;3.25;2.70;;;;;;;;;;8308663;28;20360;-60
2022/05/20 02:45:26;;;;;;;9.23;3.35;;;;;;;;;;8308859;28;20529;-59
2022/05/20 02:49:26;;;;;;;5.88;3.50;;;;;;;;;;8306895;28;20036;-60
2022/05/20 02:53:26;;;;;;;4.00;2.70;;;;;;;;;;8307026;28;20029;-59
2022/05/20 02:57:27;;;;;;;7.68;3.17;;;;;;;;;;8308330;28;20025;-59
2022/05/20 03:05:46;;;;;;;3.50;2.85;;;;;;;;;;8307682;28;20052;-60
2022/05/20 03:09:46;;;;;;;4.20;2.83;;;;;;;;;;8305698;28;20124;-59
2022/05/20 03:13:46;;;;;;;5.07;3.22;;;;;;;;;;8305856;28;20359;-58
2022/05/20 03:17:47;;;;;;;4.80;3.20;;;;;;;;;;8306401;28;20103;-59
2022/05/20 03:21:47;;;;;;;4.00;3.10;;;;;;;;;;8305055;28;20485;-60
2022/05/20 03:25:47;;;;;;;4.00;3.07;;;;;;;;;;8306442;28;20454;-58
2022/05/20 03:29:48;;;;;;;4.43;3.33;;;;;;;;;;8306295;28;20272;-58
2022/05/20 03:33:48;;;;;;;5.50;3.05;;;;;;;;;;8306395;28;20037;-59
2022/05/20 03:37:48;;;;;;;5.13;3.73;;;;;;;;;;8308376;28;20046;-59
2022/05/20 03:41:49;;;;;;;7.32;4.03;;;;;;;;;;8303797;28;20343;-58
2022/05/20 03:45:51;;;;;;;4.95;3.55;;;;;;;;;;8306962;28;20207;-59
2022/05/20 03:49:51;;;;;;;9.02;3.30;;;;;;;;;;8306526;28;20044;-59
2022/05/20 03:53:51;;;;;;;47.33;4.53;;;;;;;;;;8311498;28;20021;-59
2022/05/20 03:57:51;;;;;;;5.43;3.58;;;;;;;;;;8311806;28;20048;-58
2022/05/20 04:01:58;;;;;;;60.37;5.57;;;;;;;;;;8313257;28;20119;-59
2022/05/20 04:06:00;;;;;;;3.92;3.55;;;;;;;;;;8313857;28;21192;-59
2022/05/20 04:10:00;;;;;;;5.60;4.18;;;;;;;;;;8313558;28;20017;-58
2022/05/20 04:14:01;;;;;;;5.15;3.88;;;;;;;;;;8313161;28;20017;-58
2022/05/20 04:18:01;;;;;;;6.32;4.32;;;;;;;;;;8313696;28;20096;-58
2022/05/20 04:22:03;;;;;;;5.97;4.88;;;;;;;;;;8311191;28;20718;-59
2022/05/20 04:26:03;;;;;;;5.80;5.20;;;;;;;;;;8313562;28;20034;-59
2022/05/20 04:30:05;;;;;;;7.65;5.75;;;;;;;;;;8309445;28;20021;-59
2022/05/20 04:34:05;;;;;;;17.77;6.47;;;;;;;;;;8312896;28;20026;-59
2022/05/20 04:38:05;;;;;;;6.40;5.80;;;;;;;;;;8312928;28;20118;-58
2022/05/20 04:50:44;;;;;;;9.50;8.52;;;;;;;;;;8312084;28;20087;-59
2022/05/20 04:54:50;;;;;;;13.05;9.30;;;;;;;;;;8309764;28;20025;-59
2022/05/20 04:58:50;;;;;;;20.70;11.93;;;;;;;;;;8309093;28;20574;-58
2022/05/20 05:02:51;;;;;;;12.90;11.60;;;;;;;;;;8309681;28;20525;-59
2022/05/20 05:06:52;;;;;;;163.65;17.15;;;;;;;;;;8312277;28;20029;-59
2022/05/20 05:10:52;;;;;;;605.60;26.77;;;;;;;;;;8311525;28;20033;-59
2022/05/20 05:14:53;;;;;;;424.80;22.27;;;;;;;;;;8308430;28;20025;-60
2022/05/20 05:18:53;;;;;;;287.85;20.33;;;;;;;;;;8308540;28;20052;-60
2022/05/20 05:22:55;;;;;;;276.10;23.05;;;;;;;;;;8310789;28;20037;-59
2022/05/20 05:26:55;;;;;;;162.07;23.05;;;;;;;;;;8309412;28;20033;-60
2022/05/20 05:30:55;;;;;;;32.80;17.67;;;;;;;;;;8310352;28;20048;-60
2022/05/20 05:34:56;;;;;;;23.33;19.80;;;;;;;;;;8309564;28;20029;-59
2022/05/20 05:38:56;;;;;;;21.42;17.13;;;;;;;;;;8307760;28;20029;-61
2022/05/20 05:42:56;;;;;;;22.83;18.73;;;;;;;;;;8308269;28;20170;-60
2022/05/20 05:46:57;;;;;;;27.33;22.13;;;;;;;;;;8306971;28;20430;-60
2022/05/20 05:50:58;;;;;;;22.85;19.13;;;;;;;;;;8309449;28;20401;-60
2022/05/20 05:55:01;;;;;;;24.17;20.58;;;;;;;;;;8308225;28;20441;-60
2022/05/20 05:59:02;;;;;;;28.00;20.58;;;;;;;;;;8309592;28;20025;-60
2022/05/20 06:03:03;;;;;;;23.40;19.40;;;;;;;;;;8310262;28;20064;-60
2022/05/20 06:07:04;;;;;;;23.98;17.83;;;;;;;;;;8309623;28;20025;-60
2022/05/20 06:11:05;;;;;;;26.58;18.75;;;;;;;;;;8307607;28;20107;-60
2022/05/20 06:15:09;;;;;;;24.38;20.10;;;;;;;;;;8310247;28;20013;-60
2022/05/20 06:19:09;;;;;;;22.48;18.00;;;;;;;;;;8310688;28;20035;-60
2022/05/20 06:23:09;;;;;;;21.90;17.80;;;;;;;;;;8308123;28;20437;-60
2022/05/20 06:27:10;;;;;;;20.40;17.38;;;;;;;;;;8308635;28;20029;-60
2022/05/20 06:31:10;;;;;;;22.85;17.80;;;;;;;;;;8309012;28;20033;-58
2022/05/20 06:43:48;;;;;;;12.57;10.85;;;;;;;;;;8306818;28;20098;-59
2022/05/20 06:47:49;;;;;;;13.40;12.00;;;;;;;;;;8308246;28;20378;-59
2022/05/20 06:51:50;;;;;;;19.23;12.93;;;;;;;;;;8307936;28;20466;-59
2022/05/20 06:55:50;;;;;;;15.55;11.52;;;;;;;;;;8308142;28;20075;-59
2022/05/20 06:59:51;;;;;;;13.27;11.77;;;;;;;;;;8309110;28;20041;-59
2022/05/20 07:03:52;;;;;;;13.35;11.90;;;;;;;;;;8306360;28;20075;-59
2022/05/20 07:07:53;;;;;;;12.18;10.57;;;;;;;;;;8307304;28;20037;-59
2022/05/20 07:11:53;;;;;;;14.90;11.13;;;;;;;;;;8307656;28;20036;-59
2022/05/20 07:15:53;;;;;;;13.38;10.63;;;;;;;;;;8308251;28;20033;-59
2022/05/20 07:19:53;;;;;;;13.20;10.30;;;;;;;;;;8308975;28;20028;-59
2022/05/20 07:23:54;;;;;;;11.82;10.32;;;;;;;;;;8307292;28;20090;-59
2022/05/20 07:27:59;;;;;;;12.13;9.70;;;;;;;;;;8311276;28;20037;-59
2022/05/20 07:31:59;;;;;;;12.85;10.43;;;;;;;;;;8312839;28;20025;-59
2022/05/20 07:35:59;;;;;;;13.82;9.32;;;;;;;;;;8313157;28;20021;-60
2022/05/20 07:39:59;;;;;;;12.40;9.13;;;;;;;;;;8313113;28;20032;-60
2022/05/20 07:44:00;;;;;;;11.25;8.43;;;;;;;;;;8312608;28;20033;-60
2022/05/20 07:48:00;;;;;;;10.53;8.13;;;;;;;;;;8313027;28;20038;-60
2022/05/20 07:52:02;;;;;;;11.40;8.75;;;;;;;;;;8312947;28;20037;-59
2022/05/20 07:56:09;;;;;;;12.95;8.43;;;;;;;;;;8314173;28;20021;-60
2022/05/20 08:00:12;;;;;;;10.23;6.85;;;;;;;;;;8309078;28;20029;-60
2022/05/20 08:08:33;;;;;;;7.05;4.30;;;;;;;;;;8310403;28;20822;-59
2022/05/20 08:12:34;;;;;;;7.13;4.60;;;;;;;;;;8305178;28;20021;-59
2022/05/20 08:16:34;;;;;;;8.50;4.65;;;;;;;;;;8301429;28;20570;-59
2022/05/20 08:20:34;;;;;;;6.82;3.88;;;;;;;;;;8302787;28;20028;-60
2022/05/20 08:24:34;;;;;;;5.65;4.60;;;;;;;;;;8302706;28;20038;-59
2022/05/20 08:28:34;;;;;;;9.35;4.82;;;;;;;;;;8305676;28;20026;-59
2022/05/20 08:32:35;;;;;;;8.63;5.05;;;;;;;;;;8302770;28;20029;-59
2022/05/20 08:36:38;;;;;;;6.43;4.80;;;;;;;;;;8310295;28;20033;-59
2022/05/20 08:40:43;;;;;;;6.32;4.65;;;;;;;;;;8308444;28;20041;-59
2022/05/20 08:44:43;;;;;;;7.20;4.10;;;;;;;;;;8306022;28;20052;-60
2022/05/20 08:48:44;;;;;;;5.55;3.78;;;;;;;;;;8311853;28;20044;-59
2022/05/20 08:52:45;;;;;;;5.22;3.63;;;;;;;;;;8308656;28;20075;-59
2022/05/20 08:56:46;;;;;;;6.57;4.13;;;;;;;;;;8310666;28;20056;-59
2022/05/20 09:00:47;;;;;;;7.65;3.97;;;;;;;;;;8307296;28;20850;-59
2022/05/20 09:04:48;;;;;;;12.33;4.00;;;;;;;;;;8308074;28;20136;-60
2022/05/20 09:09:14;;;;;;;9.57;4.05;;;;;;;;;;8306438;28;20345;-59
2022/05/20 09:13:22;;;;;;;10.43;4.10;;;;;;;;;;8305848;28;20033;-59
2022/05/20 09:17:24;;;;;;;6.63;3.60;;;;;;;;;;8306927;28;20574;-60
2022/05/20 09:21:32;;;;;;;5.57;3.17;;;;;;;;;;8309184;28;20071;-61
2022/05/20 09:25:36;;;;;;;8.52;3.10;;;;;;;;;;8309351;28;20461;-62
2022/05/20 09:29:37;;;;;;;4.30;2.80;;;;;;;;;;8310085;28;20059;-61
2022/05/20 09:33:37;;;;;;;6.00;2.73;;;;;;;;;;8308621;28;20041;-61
2022/05/20 09:37:38;;;;;;;4.85;2.83;;;;;;;;;;8309615;28;20059;-62
2022/05/20 09:41:52;;;;;;;9.90;3.03;;;;;;;;;;8311242;28;20119;-62
2022/05/20 09:45:52;;;;;;;6.10;2.72;;;;;;;;;;8307309;28;20410;-61
2022/05/20 09:49:52;;;;;;;7.97;2.70;;;;;;;;;;8309495;28;20032;-59
2022/05/20 09:54:08;;;;;;;5.38;2.88;;;;;;;;;;8309042;28;20448;-60
2022/05/20 09:58:11;;;;;;;6.68;2.45;;;;;;;;;;8306992;28;20026;-60
2022/05/20 10:02:30;;;;;;;6.68;2.47;;;;;;;;;;8308184;28;20037;-59
2022/05/20 10:06:33;;;;;;;9.52;2.80;;;;;;;;;;8301287;28;20407;-59
2022/05/20 10:10:33;;;;;;;4.43;2.42;;;;;;;;;;8295877;28;20492;-59
2022/05/20 10:14:36;;;;;;;5.35;2.50;;;;;;;;;;8297224;28;20021;-59
2022/05/20 10:18:45;;;;;;;8.05;2.65;;;;;;;;;;8297686;28;20057;-60
2022/05/20 10:22:45;;;;;;;6.63;2.30;;;;;;;;;;8296885;28;20071;-59
2022/05/20 10:26:52;;;;;;;8.27;2.70;;;;;;;;;;8298920;28;20025;-59
2022/05/20 10:35:16;;;;;;;7.85;2.60;;;;;;;;;;8299041;28;20122;-61
2022/05/20 10:39:25;;;;;;;7.10;2.50;;;;;;;;;;8305880;28;20025;-60
2022/05/20 10:43:29;;;;;;;9.45;2.60;;;;;;;;;;8303737;28;20021;-62
2022/05/20 10:52:04;;;;;;;5.75;2.40;;;;;;;;;;8305336;28;20129;-60
2022/05/20 10:56:26;;;;;;;5.72;2.63;;;;;;;;;;8306267;28;20044;-61
2022/05/20 11:00:43;;;;;;;5.32;2.50;;;;;;;;;;8308679;28;20107;-60
2022/05/20 11:05:02;;;;;;;6.80;2.80;;;;;;;;;;8303017;28;20414;-60
2022/05/20 11:09:14;;;;;;;6.05;2.42;;;;;;;;;;8303083;28;20425;-60
2022/05/20 11:13:17;;;;;;;8.60;2.67;;;;;;;;;;8303687;28;20641;-60
2022/05/20 11:17:21;;;;;;;6.30;2.60;;;;;;;;;;8302934;28;20148;-60
2022/05/20 11:21:39;;;;;;;7.53;2.60;;;;;;;;;;8301390;28;20535;-59
2022/05/20 11:25:46;;;;;;;5.65;2.47;;;;;;;;;;8303553;28;20363;-60
2022/05/20 11:29:54;;;;;;;5.80;2.67;;;;;;;;;;8301853;28;20107;-60
2022/05/20 11:34:17;;;;;;;8.07;3.00;;;;;;;;;;8303452;28;20096;-59
2022/05/20 11:38:31;;;;;;;6.00;2.30;;;;;;;;;;8302443;28;20020;-59
2022/05/20 11:42:35;;;;;;;7.22;2.53;;;;;;;;;;8302999;28;20440;-59
2022/05/20 11:46:45;;;;;;;6.03;2.50;;;;;;;;;;8303050;28;20447;-60
2022/05/20 11:51:04;;;;;;;9.65;2.40;;;;;;;;;;8303470;28;20084;-60
2022/05/20 11:55:10;;;;;;;7.45;2.60;;;;;;;;;;8305696;28;20496;-60
2022/05/20 11:59:15;;;;;;;7.30;2.55;;;;;;;;;;8304511;28;20470;-60
2022/05/20 12:03:17;;;;;;;4.05;2.17;;;;;;;;;;8304326;28;20091;-60
2022/05/20 12:07:19;;;;;;;8.60;2.50;;;;;;;;;;8304829;28;20033;-60
2022/05/20 12:11:23;;;;;;;8.18;2.22;;;;;;;;;;8309926;28;20045;-60
2022/05/20 12:15:23;;;;;;;6.80;2.38;;;;;;;;;;8307073;28;20115;-60
2022/05/20 12:24:35;;;;;;;12.02;2.80;;;;;;;;;;8312009;28;20390;-61
2022/05/20 12:28:29;;;;;;;5.95;2.60;;;;;;;;;;8312856;28;20090;-60
2022/05/20 12:32:30;;;;;;;8.47;2.80;;;;;;;;;;8311033;28;20119;-60
2022/05/20 12:36:36;;;;;;;6.22;2.50;;;;;;;;;;8306184;28;20107;-61
2022/05/20 12:40:37;;;;;;;7.40;2.20;;;;;;;;;;8304560;28;20440;-60
2022/05/20 12:44:40;;;;;;;6.13;2.50;;;;;;;;;;8299413;28;20033;-60
2022/05/20 12:48:40;;;;;;;6.40;2.42;;;;;;;;;;8301217;28;20518;-60
2022/05/20 12:52:48;;;;;;;5.37;2.37;;;;;;;;;;8296897;28;20032;-60
2022/05/20 12:56:52;;;;;;;11.90;2.53;;;;;;;;;;8298306;28;20120;-60
2022/05/20 13:00:54;;;;;;;11.57;3.13;;;;;;;;;;8304192;28;20182;-60
2022/05/20 13:04:54;;;;;;;;;;;;;;;;;;8305671;28;20086;-60
2022/05/20 13:08:59;;;;;;;12.82;2.70;;;;;;;;;;8307766;28;19917;-60
2022/05/20 13:13:03;;;;;;;8.20;2.55;;;;;;;;;;8305552;28;20021;-60
2022/05/20 13:17:04;;;;;;;5.53;2.53;;;;;;;;;;8307464;28;20732;-60
2022/05/20 13:21:08;;;;;;;9.95;2.88;;;;;;;;;;8301991;28;20029;-60
2022/05/20 13:25:09;;;;;;;10.50;2.72;;;;;;;;;;8304679;28;20902;-60
2022/05/20 13:29:14;;;;;;;10.80;3.05;;;;;;;;;;8303932;28;20109;-60
2022/05/20 13:33:14;;;;;;;6.97;2.85;;;;;;;;;;8304221;28;20034;-60
2022/05/20 13:37:18;;;;;;;10.70;2.80;;;;;;;;;;8305033;28;20107;-60
2022/05/20 13:41:20;;;;;;;10.05;2.85;;;;;;;;;;8306196;28;20139;-60
2022/05/20 13:49:13;;;;;;;7.72;2.88;;;;;;;;;;8302418;28;20310;-60
2022/05/20 13:49:48;;;;;;;9.43;2.72;;;;;;;;;;8302692;28;20041;-59
2022/05/20 13:53:49;;;;;;;7.50;3.20;;;;;;;;;;8302635;28;20033;-60
2022/05/20 13:57:50;;;;;;;8.40;3.15;;;;;;;;;;8301834;28;20031;-60
2022/05/20 14:02:00;;;;;;;10.80;2.92;;;;;;;;;;8300812;28;20120;-60
2022/05/20 14:06:05;;;;;;;7.40;3.03;;;;;;;;;;8302685;28;20541;-61
2022/05/20 14:10:40;;;;;;;6.00;3.28;;;;;;;;;;8303063;28;20025;-60
2022/05/20 14:14:41;;;;;;;8.18;3.20;;;;;;;;;;8263663;28;20033;-60
2022/05/20 14:18:43;;;;;;;5.68;2.90;;;;;;;;;;8302563;28;20190;-59
2022/05/20 14:22:44;;;;;;;7.13;3.20;;;;;;;;;;8301415;28;20025;-59
2022/05/20 14:26:46;;;;;;;8.27;2.60;;;;;;;;;;8302796;28;20136;-59
2022/05/20 14:30:49;;;;;;;6.95;3.30;;;;;;;;;;8304351;28;20323;-60
2022/05/20 14:34:51;;;;;;;7.35;3.53;;;;;;;;;;8301738;28;20025;-59
2022/05/20 14:38:52;;;;;;;6.55;3.25;;;;;;;;;;8302995;28;20498;-60
2022/05/20 14:42:55;;;;;;;9.48;2.85;;;;;;;;;;8300871;28;20466;-59
2022/05/20 14:47:15;;;;;;;7.45;2.88;;;;;;;;;;8301005;28;20052;-60
2022/05/20 14:51:21;;;;;;;6.80;2.90;;;;;;;;;;8304323;28;20018;-60
2022/05/20 14:55:22;;;;;;;6.35;2.80;;;;;;;;;;8303545;28;20604;-60
2022/05/20 14:59:34;;;;;;;8.60;2.97;;;;;;;;;;8301893;28;20013;-60
2022/05/20 15:03:35;;;;;;;5.55;2.97;;;;;;;;;;8302202;28;20045;-59
2022/05/20 15:07:37;;;;;;;6.28;2.95;;;;;;;;;;8303007;28;20035;-60
2022/05/20 15:11:39;;;;;;;5.78;2.50;;;;;;;;;;8303362;28;20412;-59
2022/05/20 15:15:39;;;;;;;6.88;2.78;;;;;;;;;;8305346;28;20037;-60
2022/05/20 15:19:40;;;;;;;5.88;2.53;;;;;;;;;;8305546;28;20394;-60
2022/05/20 15:23:42;;;;;;;4.78;2.25;;;;;;;;;;8305281;28;20029;-61
2022/05/20 15:27:43;;;;;;;7.30;2.35;;;;;;;;;;8303149;28;20026;-61
2022/05/20 15:36:02;;;;;;;9.88;2.10;;;;;;;;;;8301036;28;20427;-60
2022/05/20 15:40:22;;;;;;;8.97;2.50;;;;;;;;;;8301498;28;20131;-60
2022/05/20 15:44:24;;;;;;;7.50;2.20;;;;;;;;;;8305891;28;20555;-60
2022/05/20 15:48:24;;;;;;;8.43;2.33;;;;;;;;;;8307351;28;20048;-60
2022/05/20 15:52:32;;;;;;;7.10;2.30;;;;;;;;;;8313034;28;20112;-60
2022/05/20 15:56:33;;;;;;;6.15;2.20;;;;;;;;;;8310069;28;20377;-59
2022/05/20 16:00:33;;;;;;;4.30;2.17;;;;;;;;;;8310660;28;20077;-60
2022/05/20 16:04:34;;;;;;;6.53;2.20;;;;;;;;;;8310016;28;20596;-60
2022/05/20 16:08:34;;;;;;;14.75;2.70;;;;;;;;;;8307304;28;20030;-60
2022/05/20 16:12:35;;;;;;;5.97;2.40;;;;;;;;;;8311725;28;20732;-59
2022/05/20 16:16:35;;;;;;;10.43;2.38;;;;;;;;;;8308984;28;20029;-61
2022/05/20 16:20:37;;;;;;;9.05;2.60;;;;;;;;;;8311526;28;20021;-59
2022/05/20 16:24:38;;;;;;;5.30;2.27;;;;;;;;;;8310126;28;20160;-60
2022/05/20 16:28:38;;;;;;;11.93;2.42;;;;;;;;;;8311152;28;20033;-59
2022/05/20 16:32:39;;;;;;;10.20;2.60;;;;;;;;;;8309857;28;20838;-59
2022/05/20 16:36:39;;;;;;;11.05;2.47;;;;;;;;;;8313875;28;20087;-60
2022/05/20 16:40:39;;;;;;;11.75;3.15;;;;;;;;;;8309410;28;20029;-60
2022/05/20 16:44:39;;;;;;;4.93;2.33;;;;;;;;;;8308629;28;20024;-60
2022/05/20 16:48:42;;;;;;;9.73;2.47;;;;;;;;;;8310748;28;20079;-60
2022/05/20 16:52:42;;;;;;;;;;;;;;;;;;8310591;28;20700;-60
2022/05/20 17:05:25;;;;;;;8.77;2.25;;;;;;;;;;8309575;28;20486;-60
2022/05/20 17:09:25;;;;;;;6.40;2.40;;;;;;;;;;8308940;28;20048;-60
2022/05/20 17:13:25;;;;;;;8.55;2.78;;;;;;;;;;8312661;28;20025;-60
2022/05/20 17:17:26;;;;;;;8.98;2.45;;;;;;;;;;8310411;28;20049;-59
2022/05/20 17:25:44;;;;;;;11.73;2.92;;;;;;;;;;8309827;28;20110;-60
2022/05/20 17:29:45;;;;;;;7.80;2.80;;;;;;;;;;8310027;28;20025;-60
2022/05/20 17:33:46;;;;;;;8.00;2.67;;;;;;;;;;8309877;28;20045;-67
2022/05/20 17:37:46;;;;;;;6.38;2.60;;;;;;;;;;8308432;28;20733;-60
2022/05/20 17:41:46;;;;;;;7.72;2.75;;;;;;;;;;8308098;28;20024;-60
2022/05/20 17:45:47;;;;;;;8.75;2.50;;;;;;;;;;8311082;28;20136;-60
2022/05/20 17:49:48;;;;;;;6.22;2.80;;;;;;;;;;8308341;28;20076;-60
2022/05/20 17:53:48;;;;;;;9.52;2.70;;;;;;;;;;8306571;28;20026;-61
2022/05/20 17:57:48;;;;;;;6.03;2.55;;;;;;;;;;8303946;28;20040;-61
2022/05/20 18:01:49;;;;;;;8.68;3.15;;;;;;;;;;8305665;28;20095;-60
2022/05/20 18:05:50;;;;;;;17.40;3.17;;;;;;;;;;8312369;28;20079;-60
2022/05/20 18:09:50;;;;;;;9.52;3.05;;;;;;;;;;8306791;28;20075;-61
2022/05/20 18:13:50;;;;;;;10.23;3.10;;;;;;;;;;8310365;28;20293;-60
2022/05/20 18:17:53;;;;;;;14.35;3.10;;;;;;;;;;8304500;28;20060;-60
2022/05/20 18:21:53;;;;;;;9.52;3.05;;;;;;;;;;8303368;28;20134;-59
2022/05/20 18:25:59;;;;;;;12.65;3.15;;;;;;;;;;8302356;28;20030;-59
2022/05/20 18:29:59;;;;;;;13.57;3.58;;;;;;;;;;8302454;28;20025;-60
2022/05/20 18:34:00;;;;;;;10.73;2.92;;;;;;;;;;8303770;28;20033;-61
2022/05/20 18:42:20;;;;;;;4.07;1.90;;;;;;;;;;8300161;28;20066;-61
2022/05/20 18:46:21;;;;;;;8.82;2.50;;;;;;;;;;8302838;28;20045;-60
2022/05/20 18:50:23;;;;;;;4.82;2.00;;;;;;;;;;8303949;28;20017;-59
2022/05/20 18:54:24;;;;;;;3.20;2.03;;;;;;;;;;8303417;28;20044;-60
2022/05/20 18:58:24;;;;;;;4.88;2.20;;;;;;;;;;8302152;28;20026;-60
2022/05/20 19:02:24;;;;;;;4.10;2.10;;;;;;;;;;8302026;28;20041;-59
2022/05/20 19:06:25;;;;;;;3.55;2.05;;;;;;;;;;8302163;28;20022;-60
2022/05/20 19:10:25;;;;;;;4.97;2.30;;;;;;;;;;8303567;28;20020;-60
2022/05/20 19:14:25;;;;;;;4.25;2.10;;;;;;;;;;8302822;28;20297;-60
2022/05/20 19:18:25;;;;;;;4.65;2.20;;;;;;;;;;8304592;28;20136;-60
2022/05/20 19:22:26;;;;;;;4.10;1.85;;;;;;;;;;8306403;28;20057;-60
2022/05/20 19:26:26;;;;;;;5.67;2.10;;;;;;;;;;8309724;28;20100;-60
2022/05/20 19:30:26;;;;;;;5.10;2.08;;;;;;;;;;8300763;28;20075;-60
2022/05/20 19:34:26;;;;;;;5.45;2.00;;;;;;;;;;8320724;28;20102;-60
2022/05/20 19:38:26;;;;;;;4.85;1.70;;;;;;;;;;8308578;28;20056;-60
2022/05/20 19:42:27;;;;;;;2.72;1.70;;;;;;;;;;8308042;28;20028;-59
2022/05/20 19:46:27;;;;;;;3.30;1.60;;;;;;;;;;8306052;28;20067;-59
2022/05/20 19:50:28;;;;;;;4.40;1.90;;;;;;;;;;8311717;28;20021;-59
2022/05/20 19:54:28;;;;;;;2.42;1.77;;;;;;;;;;8308326;28;20024;-59
2022/05/20 20:02:48;;;;;;;2.22;1.65;;;;;;;;;;8307614;28;20433;-59
2022/05/20 20:06:49;;;;;;;3.50;1.67;;;;;;;;;;8307608;28;20156;-60
2022/05/20 20:10:49;;;;;;;1.52;1.42;;;;;;;;;;8308135;28;20021;-59
2022/05/20 20:14:49;;;;;;;4.72;1.65;;;;;;;;;;8307055;28;20402;-60
2022/05/20 20:18:50;;;;;;;6.67;1.53;;;;;;;;;;8307371;28;20413;-59
2022/05/20 20:27:09;;;;;;;2.75;1.30;;;;;;;;;;8309418;28;20060;-59
2022/05/20 20:31:17;;;;;;;1.85;1.50;;;;;;;;;;8305559;28;20029;-59
2022/05/20 20:35:18;;;;;;;4.68;1.70;;;;;;;;;;8301694;28;20500;-59
2022/05/20 20:39:18;;;;;;;4.30;1.75;;;;;;;;;;8304453;28;20086;-60
2022/05/20 20:43:19;;;;;;;5.50;1.60;;;;;;;;;;8302230;28;20478;-59
2022/05/20 20:47:21;;;;;;;1.40;1.30;;;;;;;;;;8303561;28;20790;-60
2022/05/20 20:51:21;;;;;;;2.40;1.63;;;;;;;;;;8302467;28;20017;-59
2022/05/20 20:55:23;;;;;;;1.98;1.38;;;;;;;;;;8303461;28;20021;-59
2022/05/20 20:59:24;;;;;;;3.10;1.10;;;;;;;;;;8301952;28;20426;-59
2022/05/20 21:03:28;;;;;;;1.98;1.30;;;;;;;;;;8304431;28;20034;-59
2022/05/20 21:07:28;;;;;;;2.60;1.40;;;;;;;;;;8301356;28;20040;-60
2022/05/20 21:11:29;;;;;;;4.57;1.30;;;;;;;;;;8303158;28;20505;-59
2022/05/20 21:15:31;;;;;;;4.47;1.40;;;;;;;;;;8301005;28;20117;-59
2022/05/20 21:19:32;;;;;;;1.90;1.30;;;;;;;;;;8303705;28;20040;-59
2022/05/20 21:23:32;;;;;;;4.53;1.50;;;;;;;;;;8301893;28;20037;-59
2022/05/20 21:27:32;;;;;;;2.28;1.40;;;;;;;;;;8301183;28;20060;-59
2022/05/20 21:31:32;;;;;;;2.88;1.52;;;;;;;;;;8300451;28;20037;-59
2022/05/20 21:35:32;;;;;;;2.55;1.60;;;;;;;;;;8302964;28;20763;-59
2022/05/20 21:39:33;;;;;;;1.48;1.38;;;;;;;;;;8301730;28;20815;-60
2022/05/20 21:43:33;;;;;;;3.22;1.60;;;;;;;;;;8300122;28;20577;-59
2022/05/20 21:47:33;;;;;;;2.40;1.70;;;;;;;;;;8301831;28;20033;-60
2022/05/20 21:51:33;;;;;;;3.63;1.58;;;;;;;;;;8301388;28;20079;-60
2022/05/20 21:55:34;;;;;;;3.78;1.88;;;;;;;;;;8301979;28;20481;-60
2022/05/20 21:59:34;;;;;;;3.35;1.75;;;;;;;;;;8302548;28;20513;-60
2022/05/20 22:12:13;;;;;;;3.78;2.33;;;;;;;;;;8305046;28;20120;-60
2022/05/20 22:16:13;;;;;;;3.15;2.40;;;;;;;;;;8304571;28;20033;-59
2022/05/20 22:20:14;;;;;;;3.00;2.70;;;;;;;;;;8302675;28;20025;-59
2022/05/20 22:24:26;;;;;;;3.85;3.10;;;;;;;;;;8303106;28;20115;-59
2022/05/20 22:28:26;;;;;;;3.45;2.35;;;;;;;;;;8306913;28;20766;-59
2022/05/20 22:32:26;;;;;;;3.13;2.10;;;;;;;;;;8302862;28;20033;-59
2022/05/20 22:36:27;;;;;;;5.00;2.43;;;;;;;;;;8304993;28;20490;-59
2022/05/20 22:40:27;;;;;;;2.78;2.30;;;;;;;;;;8304487;28;20586;-60
2022/05/20 22:44:27;;;;;;;3.28;2.83;;;;;;;;;;8306377;28;20029;-60
2022/05/20 22:48:27;;;;;;;3.75;3.17;;;;;;;;;;8304572;28;20025;-60
2022/05/20 22:52:27;;;;;;;4.30;2.88;;;;;;;;;;8307112;28;20020;-60
2022/05/20 22:56:28;;;;;;;7.10;3.10;;;;;;;;;;8306621;28;20620;-60
2022/05/20 23:00:29;;;;;;;3.47;3.00;;;;;;;;;;8313667;28;20029;-60
2022/05/20 23:04:30;;;;;;;3.85;2.60;;;;;;;;;;8314442;28;20100;-59
2022/05/20 23:08:30;;;;;;;7.40;2.25;;;;;;;;;;8313677;28;20138;-61
2022/05/20 23:12:32;;;;;;;3.38;2.20;;;;;;;;;;8312933;28;20083;-60
2022/05/20 23:16:32;;;;;;;2.20;2.00;;;;;;;;;;8313528;28;20037;-59
2022/05/20 23:20:32;;;;;;;4.18;1.70;;;;;;;;;;8312816;28;20083;-59
2022/05/20 23:24:32;;;;;;;1.80;1.50;;;;;;;;;;8314679;28;20336;-59
2022/05/20 23:28:34;;;;;;;4.60;1.40;;;;;;;;;;8312223;28;20025;-59
2022/05/20 23:32:35;;;;;;;2.30;1.35;;;;;;;;;;8312438;28;20870;-60
2022/05/20 23:36:35;;;;;;;2.42;1.23;;;;;;;;;;8312957;28;20013;-59
2022/05/20 23:40:35;;;;;;;1.23;1.13;;;;;;;;;;8314048;28;20134;-60
2022/05/20 23:44:35;;;;;;;2.25;1.42;;;;;;;;;;8312204;28;20037;-59
2022/05/20 23:48:36;;;;;;;2.88;1.50;;;;;;;;;;8313624;28;20168;-61
2022/05/20 23:52:36;;;;;;;3.50;1.90;;;;;;;;;;8311861;28;20582;-60
